Time;durP1;ratioP1;P1;durP2;ratioP2;P2;SDS_P1;SDS_P2;PMS_P1;PMS_P2;Temp;Humidity;BMP_temperature;BMP_pressure;BME280_temperature;BME280_humidity;BME280_pressure;Samples;Min_cycle;Max_cycle;Signal;HPM_P1;HPM_P2
2022/11/22 00:01:01;;;;;;;;;;;22.10;65.50;;;;;;1553924;74;762;-59
2022/11/22 00:03:02;;;;;;;;;;;22.20;65.40;;;;;;1572603;74;1937;-58
2022/11/22 00:05:05;;;;;;;;;;;22.20;65.40;;;;;;1573737;74;727;-58
2022/11/22 00:07:07;;;;;;;;;;;22.10;65.20;;;;;;1569360;74;1451;-58
2022/11/22 00:09:08;;;;;;;;;;;22.20;65.20;;;;;;1582742;73;1159;-57
2022/11/22 00:11:10;;;;;;;;;;;22.20;65.30;;;;;;1580916;74;647;-58
2022/11/22 00:13:12;;;;;;;;;;;22.20;65.30;;;;;;1578073;74;697;-56
2022/11/22 00:15:14;;;;;;;;;;;22.30;65.30;;;;;;1581369;74;672;-56
2022/11/22 00:17:16;;;;;;;;;;;22.20;65.20;;;;;;1578777;74;679;-56
2022/11/22 00:19:18;;;;;;;;;;;22.20;65.20;;;;;;1577031;74;1100;-57
2022/11/22 00:21:20;;;;;;;;;;;22.20;65.30;;;;;;1580237;74;1462;-58
2022/11/22 00:23:22;;;;;;;;;;;22.30;65.30;;;;;;1573095;74;1947;-58
2022/11/22 00:25:24;;;;;;;;;;;22.20;65.20;;;;;;1583152;74;1020;-59
2022/11/22 00:27:26;;;;;;;;;;;22.30;65.20;;;;;;1581171;74;675;-57
2022/11/22 00:29:28;;;;;;;;;;;22.20;65.10;;;;;;1580859;74;1084;-58
2022/11/22 00:31:29;;;;;;;;;;;22.30;65.30;;;;;;1575922;74;720;-57
2022/11/22 00:33:31;;;;;;;;;;;22.30;65.10;;;;;;1578083;74;673;-57
2022/11/22 00:35:33;;;;;;;;;;;22.30;65.00;;;;;;1576572;74;1458;-57
2022/11/22 00:37:35;;;;;;;;;;;22.40;64.90;;;;;;1583811;74;1142;-56
2022/11/22 00:39:37;;;;;;;;;;;22.40;64.50;;;;;;1576052;74;575;-58
2022/11/22 00:41:39;;;;;;;;;;;22.40;64.40;;;;;;1571030;74;635;-58
2022/11/22 00:43:41;;;;;;;;;;;22.40;64.40;;;;;;1561791;74;1939;-58
2022/11/22 00:45:43;;;;;;;;;;;22.40;64.50;;;;;;1573903;74;570;-56
2022/11/22 00:47:44;;;;;;;;;;;22.40;64.50;;;;;;1560645;74;1141;-56
2022/11/22 00:49:46;;;;;;;;;;;22.30;64.50;;;;;;1558827;74;1462;-58
2022/11/22 00:51:48;;;;;;;;;;;22.30;64.60;;;;;;1562616;74;709;-57
2022/11/22 00:53:50;;;;;;;;;;;22.30;64.80;;;;;;1575571;74;658;-58
2022/11/22 00:55:52;;;;;;;;;;;22.30;64.90;;;;;;1566801;74;646;-59
2022/11/22 00:57:54;;;;;;;;;;;22.20;64.90;;;;;;1571259;74;1142;-58
2022/11/22 00:59:56;;;;;;;;;;;22.10;65.00;;;;;;1571121;74;830;-57
2022/11/22 01:01:57;;;;;;;;;;;22.20;65.10;;;;;;1574602;74;656;-57
2022/11/22 01:03:59;;;;;;;;;;;22.10;65.10;;;;;;1572085;74;1939;-58
2022/11/22 01:06:01;;;;;;;;;;;22.10;64.90;;;;;;1575280;74;701;-58
2022/11/22 01:08:03;;;;;;;;;;;22.10;65.00;;;;;;1566714;74;1169;-57
2022/11/22 01:10:06;;;;;;;;;;;22.10;64.90;;;;;;1570054;74;689;-56
2022/11/22 01:12:07;;;;;;;;;;;22.10;64.90;;;;;;1567088;74;712;-56
2022/11/22 01:14:09;;;;;;;;;;;22.10;65.00;;;;;;1567869;74;698;-58
2022/11/22 01:16:12;;;;;;;;;;;22.10;64.90;;;;;;1570664;73;230287;-71
2022/11/22 01:18:13;;;;;;;;;;;22.10;64.90;;;;;;1543409;75;1732;-71
2022/11/22 01:20:15;;;;;;;;;;;22.10;65.00;;;;;;1507532;77;686;-69
2022/11/22 01:22:17;;;;;;;;;;;22.10;65.00;;;;;;1519260;77;701;-71
2022/11/22 01:24:19;;;;;;;;;;;22.00;65.00;;;;;;1534690;76;1955;-67
2022/11/22 01:26:21;;;;;;;;;;;22.00;65.10;;;;;;1531931;76;1204;-71
2022/11/22 01:28:23;;;;;;;;;;;22.00;65.10;;;;;;1497877;77;769;-72
2022/11/22 01:30:25;;;;;;;;;;;22.00;65.20;;;;;;1536023;75;722;-71
2022/11/22 01:32:27;;;;;;;;;;;22.00;65.30;;;;;;1530554;76;1583;-72
2022/11/22 01:34:29;;;;;;;;;;;22.00;65.20;;;;;;1519746;77;719;-71
2022/11/22 01:36:30;;;;;;;;;;;22.10;65.20;;;;;;1506370;77;1139;-73
2022/11/22 01:38:32;;;;;;;;;;;22.10;65.20;;;;;;1538382;75;693;-72
2022/11/22 01:40:34;;;;;;;;;;;22.10;65.10;;;;;;1539316;76;695;-70
2022/11/22 01:42:40;;;;;;;;;;;22.10;65.20;;;;;;1530578;76;663;-71
2022/11/22 01:44:42;;;;;;;;;;;22.10;65.20;;;;;;1538470;75;1950;-72
2022/11/22 01:46:44;;;;;;;;;;;22.10;65.50;;;;;;1543110;75;1520;-72
2022/11/22 01:48:48;;;;;;;;;;;22.00;65.40;;;;;;1539460;76;711;-73
2022/11/22 01:50:51;;;;;;;;;;;22.00;65.70;;;;;;1538476;75;683;-71
2022/11/22 01:52:53;;;;;;;;;;;22.10;65.90;;;;;;1532912;75;693;-72
2022/11/22 01:54:56;;;;;;;;;;;22.00;65.90;;;;;;1539780;76;685;-68
2022/11/22 01:56:59;;;;;;;;;;;22.10;66.10;;;;;;1538199;76;1129;-71
2022/11/22 01:59:02;;;;;;;;;;;21.90;66.00;;;;;;1539695;75;716;-71
2022/11/22 02:01:04;;;;;;;;;;;22.10;65.90;;;;;;1532166;76;691;-72
2022/11/22 02:03:07;;;;;;;;;;;22.10;65.80;;;;;;1505413;77;689;-72
2022/11/22 02:05:09;;;;;;;;;;;22.10;65.50;;;;;;1506121;77;1941;-73
2022/11/22 02:07:13;;;;;;;;;;;22.20;65.30;;;;;;1511281;77;1142;-71
2022/11/22 02:09:15;;;;;;;;;;;22.20;65.20;;;;;;1512521;77;1337;-73
2022/11/22 02:11:17;;;;;;;;;;;22.20;65.20;;;;;;1506129;77;716;-72
2022/11/22 02:13:19;;;;;;;;;;;22.20;65.10;;;;;;1518581;77;1370;-74
2022/11/22 02:15:21;;;;;;;;;;;22.10;65.20;;;;;;1515719;77;693;-72
2022/11/22 02:17:25;;;;;;;;;;;22.20;65.10;;;;;;1514230;77;720;-72
2022/11/22 02:19:34;;;;;;;;;;;22.30;65.20;;;;;;1505990;77;887;-75
2022/11/22 02:21:36;;;;;;;;;;;22.20;65.30;;;;;;1536061;76;679;-71
2022/11/22 02:23:40;;;;;;;;;;;22.10;65.30;;;;;;1511899;77;1939;-73
2022/11/22 02:25:43;;;;;;;;;;;22.20;65.20;;;;;;1540876;76;1656;-72
2022/11/22 02:27:45;;;;;;;;;;;22.20;65.30;;;;;;1518055;77;1547;-73
2022/11/22 02:29:47;;;;;;;;;;;22.20;65.30;;;;;;1530631;75;665;-73
2022/11/22 02:31:49;;;;;;;;;;;22.20;65.10;;;;;;1546171;75;648;-74
2022/11/22 02:33:51;;;;;;;;;;;22.20;65.10;;;;;;1540780;76;689;-74
2022/11/22 02:35:53;;;;;;;;;;;22.20;65.00;;;;;;1536539;75;1080;-70
2022/11/22 02:37:58;;;;;;;;;;;22.20;65.10;;;;;;1538464;76;734;-72
2022/11/22 02:40:01;;;;;;;;;;;22.20;65.20;;;;;;1512479;77;730;-72
2022/11/22 02:42:03;;;;;;;;;;;22.20;65.10;;;;;;1541458;76;1561;-72
2022/11/22 02:44:06;;;;;;;;;;;22.10;65.20;;;;;;1505359;77;1952;-72
2022/11/22 02:46:09;;;;;;;;;;;22.20;65.20;;;;;;1537440;76;1139;-74
2022/11/22 02:48:12;;;;;;;;;;;22.10;65.20;;;;;;1547953;75;668;-73
2022/11/22 02:50:14;;;;;;;;;;;22.10;65.30;;;;;;1544909;76;788;-74
2022/11/22 02:52:16;;;;;;;;;;;22.10;65.20;;;;;;1544046;75;820;-72
2022/11/22 02:54:18;;;;;;;;;;;22.10;65.20;;;;;;1543592;76;706;-72
2022/11/22 02:56:20;;;;;;;;;;;22.10;65.40;;;;;;1551497;75;1343;-69
2022/11/22 02:58:22;;;;;;;;;;;22.00;65.40;;;;;;1544383;76;737;-74
2022/11/22 03:00:24;;;;;;;;;;;22.10;65.70;;;;;;1539837;75;711;-72
2022/11/22 03:02:26;;;;;;;;;;;22.00;65.70;;;;;;1545917;75;724;-73
2022/11/22 03:04:28;;;;;;;;;;;22.00;65.80;;;;;;1548649;75;1935;-72
2022/11/22 03:06:30;;;;;;;;;;;21.90;65.80;;;;;;1548704;75;1186;-73
2022/11/22 03:08:32;;;;;;;;;;;22.00;65.90;;;;;;1547367;75;688;-72
2022/11/22 03:10:34;;;;;;;;;;;22.00;66.10;;;;;;1541874;75;1572;-74
2022/11/22 03:12:36;;;;;;;;;;;22.00;66.20;;;;;;1547959;75;663;-72
2022/11/22 03:14:37;;;;;;;;;;;21.90;66.20;;;;;;1544220;75;677;-71
2022/11/22 03:16:39;;;;;;;;;;;22.00;66.30;;;;;;1547872;75;1140;-72
2022/11/22 03:18:41;;;;;;;;;;;21.90;66.30;;;;;;1545234;75;1022;-72
2022/11/22 03:20:43;;;;;;;;;;;21.90;66.40;;;;;;1548220;75;653;-74
2022/11/22 03:22:45;;;;;;;;;;;21.90;66.50;;;;;;1547593;76;675;-72
2022/11/22 03:24:47;;;;;;;;;;;21.90;66.40;;;;;;1555599;75;1943;-73
2022/11/22 03:26:49;;;;;;;;;;;21.90;66.40;;;;;;1547793;75;1140;-74
2022/11/22 03:28:51;;;;;;;;;;;21.90;66.50;;;;;;1547795;75;732;-72
2022/11/22 03:30:52;;;;;;;;;;;21.80;66.50;;;;;;1547450;75;682;-74
2022/11/22 03:32:55;;;;;;;;;;;21.90;66.60;;;;;;1544354;75;662;-70
2022/11/22 03:34:56;;;;;;;;;;;21.90;66.80;;;;;;1546587;75;716;-71
2022/11/22 03:36:58;;;;;;;;;;;21.80;66.70;;;;;;1536305;75;1110;-71
2022/11/22 03:39:00;;;;;;;;;;;21.80;66.70;;;;;;1546351;75;1411;-73
2022/11/22 03:41:02;;;;;;;;;;;21.80;66.70;;;;;;1545606;75;773;-72
2022/11/22 03:43:04;;;;;;;;;;;21.90;66.80;;;;;;1548701;77;775;-74
2022/11/22 03:45:06;;;;;;;;;;;21.80;66.70;;;;;;1548773;75;1943;-72
2022/11/22 03:47:08;;;;;;;;;;;21.90;66.80;;;;;;1545817;75;1141;-72
2022/11/22 03:49:10;;;;;;;;;;;21.80;66.80;;;;;;1539724;75;675;-73
2022/11/22 03:51:12;;;;;;;;;;;21.90;66.90;;;;;;1542761;76;703;-74
2022/11/22 03:53:14;;;;;;;;;;;21.80;66.70;;;;;;1544462;75;1488;-73
2022/11/22 03:55:16;;;;;;;;;;;21.80;66.70;;;;;;1533809;75;814;-72
2022/11/22 03:57:18;;;;;;;;;;;21.80;66.80;;;;;;1549340;75;1101;-73
2022/11/22 03:59:20;;;;;;;;;;;21.80;66.80;;;;;;1545214;76;865;-71
2022/11/22 04:01:22;;;;;;;;;;;21.80;66.70;;;;;;1528582;76;716;-71
2022/11/22 04:03:24;;;;;;;;;;;21.90;66.60;;;;;;1534060;75;763;-75
2022/11/22 04:05:25;;;;;;;;;;;22.00;66.40;;;;;;1530438;75;1950;-74
2022/11/22 04:07:27;;;;;;;;;;;21.90;66.30;;;;;;1530749;75;1484;-72
2022/11/22 04:09:29;;;;;;;;;;;21.90;66.20;;;;;;1554172;75;730;-72
2022/11/22 04:11:31;;;;;;;;;;;22.00;66.10;;;;;;1547274;75;736;-72
2022/11/22 04:15:55;;;;;;;;;;;22.00;66.00;;;;;;1548754;75;2032;-71
2022/11/22 04:17:56;;;;;;;;;;;22.00;66.20;;;;;;1548517;75;802;-73
2022/11/22 04:22:18;;;;;;;;;;;21.90;66.30;;;;;;1546793;75;1627;-72
2022/11/22 04:26:39;;;;;;;;;;;21.90;66.50;;;;;;1545064;75;1641;-71
2022/11/22 04:28:41;;;;;;;;;;;21.80;66.50;;;;;;1548880;75;785;-72
2022/11/22 04:33:03;;;;;;;;;;;21.80;66.60;;;;;;1548514;75;1636;-72
2022/11/22 04:35:05;;;;;;;;;;;21.80;66.70;;;;;;1548649;75;1680;-73
2022/11/22 04:37:07;;;;;;;;;;;21.80;66.70;;;;;;1545760;75;1144;-72
2022/11/22 04:39:08;;;;;;;;;;;21.80;66.80;;;;;;1554693;75;674;-74
2022/11/22 04:41:10;;;;;;;;;;;21.80;66.90;;;;;;1547600;76;653;-73
2022/11/22 04:45:39;;;;;;;;;;;21.80;66.90;;;;;;1544254;75;1885;-74
2022/11/22 04:47:59;;;;;;;;;;;21.80;67.00;;;;;;1546827;75;698;-73
2022/11/22 04:50:01;;;;;;;;;;;21.80;67.10;;;;;;1548763;75;708;-73
2022/11/22 04:53:03;;;;;;;;;;;21.80;67.00;;;;;;1541783;75;696;-72
2022/11/22 04:54:16;;;;;;;;;;;21.80;67.10;;;;;;1519759;75;1157;-72
2022/11/22 04:56:18;;;;;;;;;;;21.80;67.00;;;;;;1544821;75;1090;-74
2022/11/22 04:58:19;;;;;;;;;;;21.80;67.10;;;;;;1547778;75;732;-73
2022/11/22 05:00:21;;;;;;;;;;;21.80;67.00;;;;;;1546146;75;644;-72
2022/11/22 05:02:23;;;;;;;;;;;21.80;66.90;;;;;;1553589;75;1340;-73
2022/11/22 05:04:25;;;;;;;;;;;21.80;66.80;;;;;;1547489;75;635;-73
2022/11/22 05:06:27;;;;;;;;;;;21.80;66.90;;;;;;1546294;75;1929;-73
2022/11/22 05:08:29;;;;;;;;;;;21.80;66.80;;;;;;1542593;76;787;-73
2022/11/22 05:11:17;;;;;;;;;;;21.80;66.80;;;;;;1534597;75;661;-73
2022/11/22 05:12:34;;;;;;;;;;;21.80;66.80;;;;;;1518291;77;1295;-73
2022/11/22 05:14:36;;;;;;;;;;;21.80;66.80;;;;;;1550047;75;751;-71
2022/11/22 05:16:38;;;;;;;;;;;21.80;66.90;;;;;;1560868;75;1188;-69
2022/11/22 05:18:40;;;;;;;;;;;21.90;66.90;;;;;;1545187;75;795;-72
2022/11/22 05:20:42;;;;;;;;;;;21.80;66.90;;;;;;1543756;75;589;-69
2022/11/22 05:25:03;;;;;;;;;;;21.80;66.90;;;;;;1535372;77;1885;-72
2022/11/22 05:27:05;;;;;;;;;;;21.90;66.80;;;;;;1537996;77;1161;-73
2022/11/22 05:29:08;;;;;;;;;;;21.80;66.70;;;;;;1548006;75;729;-71
2022/11/22 05:31:10;;;;;;;;;;;21.90;66.80;;;;;;1539433;75;657;-73
2022/11/22 05:33:12;;;;;;;;;;;21.90;66.70;;;;;;1543383;76;646;-73
2022/11/22 05:35:14;;;;;;;;;;;21.90;66.70;;;;;;1542927;75;690;-72
2022/11/22 05:37:16;;;;;;;;;;;21.90;66.40;;;;;;1547754;75;1113;-72
2022/11/22 05:39:18;;;;;;;;;;;22.00;66.40;;;;;;1534924;77;684;-69
2022/11/22 05:41:20;;;;;;;;;;;22.00;66.30;;;;;;1547746;76;700;-72
2022/11/22 05:43:22;;;;;;;;;;;22.00;66.30;;;;;;1548707;77;729;-72
2022/11/22 05:45:24;;;;;;;;;;;22.00;66.20;;;;;;1546930;75;1921;-74
2022/11/22 05:47:25;;;;;;;;;;;22.00;66.10;;;;;;1542276;75;694;-72
2022/11/22 05:49:27;;;;;;;;;;;21.90;66.30;;;;;;1548231;75;1656;-67
2022/11/22 05:51:29;;;;;;;;;;;22.00;66.70;;;;;;1547835;75;657;-70
2022/11/22 05:53:31;;;;;;;;;;;21.90;66.40;;;;;;1548251;75;767;-69
2022/11/22 05:55:33;;;;;;;;;;;21.90;66.40;;;;;;1545150;75;1152;-68
2022/11/22 05:57:35;;;;;;;;;;;21.90;66.30;;;;;;1515176;77;547;-68
2022/11/22 05:59:37;;;;;;;;;;;22.10;66.10;;;;;;1542500;75;708;-70
2022/11/22 06:01:38;;;;;;;;;;;22.10;65.70;;;;;;1548027;76;698;-68
2022/11/22 06:03:40;;;;;;;;;;;22.20;65.50;;;;;;1540827;75;764;-68
2022/11/22 06:05:42;;;;;;;;;;;22.20;65.20;;;;;;1546322;75;1925;-69
2022/11/22 06:07:44;;;;;;;;;;;22.20;65.20;;;;;;1539857;76;720;-69
2022/11/22 06:09:46;;;;;;;;;;;22.10;65.60;;;;;;1548692;75;672;-68
2022/11/22 06:11:48;;;;;;;;;;;22.30;65.40;;;;;;1544234;75;618;-70
2022/11/22 06:13:51;;;;;;;;;;;22.00;65.50;;;;;;1535385;75;855;-69
2022/11/22 06:15:53;;;;;;;;;;;21.90;66.00;;;;;;1554106;75;1172;-67
2022/11/22 06:17:55;;;;;;;;;;;21.90;66.20;;;;;;1513042;77;1185;-69
2022/11/22 06:19:57;;;;;;;;;;;21.90;66.30;;;;;;1531575;77;718;-70
2022/11/22 06:21:58;;;;;;;;;;;21.80;66.20;;;;;;1528866;77;643;-68
2022/11/22 06:24:00;;;;;;;;;;;21.90;66.40;;;;;;1533319;76;744;-70
2022/11/22 06:26:06;;;;;;;;;;;21.70;66.80;;;;;;1533408;76;1940;-73
2022/11/22 06:28:08;;;;;;;;;;;21.70;67.20;;;;;;1529874;77;653;-67
2022/11/22 06:30:10;;;;;;;;;;;21.80;66.90;;;;;;1526677;76;704;-67
2022/11/22 06:32:12;;;;;;;;;;;21.80;66.90;;;;;;1533872;77;677;-69
2022/11/22 06:34:14;;;;;;;;;;;21.80;67.00;;;;;;1533550;76;665;-67
2022/11/22 06:36:23;;;;;;;;;;;21.70;66.90;;;;;;1520117;76;1161;-69
2022/11/22 06:38:25;;;;;;;;;;;21.80;67.10;;;;;;1529457;77;749;-70
2022/11/22 06:40:27;;;;;;;;;;;21.70;67.50;;;;;;1522044;77;652;-66
2022/11/22 06:42:29;;;;;;;;;;;21.70;67.60;;;;;;1520829;77;743;-67
2022/11/22 06:44:30;;;;;;;;;;;21.70;67.60;;;;;;1532422;76;690;-69
2022/11/22 06:46:32;;;;;;;;;;;21.80;67.30;;;;;;1532005;76;1942;-67
2022/11/22 06:48:35;;;;;;;;;;;21.80;67.10;;;;;;1536101;76;805;-71
2022/11/22 06:50:37;;;;;;;;;;;21.80;67.00;;;;;;1531096;76;652;-68
2022/11/22 06:52:39;;;;;;;;;;;21.90;66.90;;;;;;1523404;76;749;-70
2022/11/22 06:54:40;;;;;;;;;;;22.00;66.40;;;;;;1532865;76;807;-75
2022/11/22 06:56:42;;;;;;;;;;;22.10;66.00;;;;;;1525342;77;1142;-68
2022/11/22 06:58:44;;;;;;;;;;;22.20;65.40;;;;;;1516027;77;728;-68
2022/11/22 07:00:46;;;;;;;;;;;22.10;65.00;;;;;;1528887;76;771;-68
2022/11/22 07:02:48;;;;;;;;;;;22.30;64.90;;;;;;1533187;77;735;-68
2022/11/22 07:04:50;;;;;;;;;;;22.20;64.80;;;;;;1523799;77;605;-67
2022/11/22 07:06:52;;;;;;;;;;;22.20;64.40;;;;;;1533669;76;1928;-69
2022/11/22 07:08:54;;;;;;;;;;;22.30;64.30;;;;;;1525113;76;679;-66
2022/11/22 07:10:57;;;;;;;;;;;22.20;64.20;;;;;;1531263;77;697;-67
2022/11/22 07:12:59;;;;;;;;;;;22.20;64.10;;;;;;1522201;76;1752;-68
2022/11/22 07:15:01;;;;;;;;;;;22.20;64.00;;;;;;1535916;76;759;-66
2022/11/22 07:17:03;;;;;;;;;;;22.20;64.00;;;;;;1529416;71;228594;-66
2022/11/22 07:19:05;;;;;;;;;;;22.20;63.80;;;;;;1510571;77;637;-66
2022/11/22 07:21:08;;;;;;;;;;;22.20;63.70;;;;;;1505962;77;679;-67
2022/11/22 07:23:11;;;;;;;;;;;22.20;63.70;;;;;;1508246;77;1032;-66
2022/11/22 07:25:13;;;;;;;;;;;22.20;63.70;;;;;;1499615;78;644;-67
2022/11/22 07:27:15;;;;;;;;;;;22.20;63.60;;;;;;1484287;79;1957;-67
2022/11/22 07:29:17;;;;;;;;;;;22.10;63.60;;;;;;1504417;77;659;-65
2022/11/22 07:31:19;;;;;;;;;;;22.30;63.60;;;;;;1499489;77;636;-65
2022/11/22 07:33:21;;;;;;;;;;;22.20;63.40;;;;;;1504906;77;660;-66
2022/11/22 07:35:23;;;;;;;;;;;22.30;63.40;;;;;;1503577;77;722;-64
2022/11/22 07:37:24;;;;;;;;;;;22.20;63.30;;;;;;1502831;77;1188;-65
2022/11/22 07:39:26;;;;;;;;;;;22.20;63.30;;;;;;1503024;77;758;-67
2022/11/22 07:41:28;;;;;;;;;;;22.20;63.30;;;;;;1503759;77;743;-66
2022/11/22 07:43:30;;;;;;;;;;;22.20;63.30;;;;;;1506742;77;726;-67
2022/11/22 07:45:32;;;;;;;;;;;22.20;63.20;;;;;;1503683;77;1934;-66
2022/11/22 07:47:34;;;;;;;;;;;22.20;63.20;;;;;;1509799;77;1120;-67
2022/11/22 07:49:36;;;;;;;;;;;22.20;63.20;;;;;;1505799;77;731;-67
2022/11/22 07:51:38;;;;;;;;;;;22.20;63.20;;;;;;1503266;77;611;-67
2022/11/22 07:53:40;;;;;;;;;;;22.20;63.20;;;;;;1504988;77;726;-65
2022/11/22 07:55:42;;;;;;;;;;;22.30;63.10;;;;;;1497429;77;663;-66
2022/11/22 07:57:44;;;;;;;;;;;22.20;62.90;;;;;;1524191;77;1092;-66
2022/11/22 07:59:46;;;;;;;;;;;22.30;63.00;;;;;;1503982;77;761;-67
2022/11/22 08:01:48;;;;;;;;;;;22.30;62.90;;;;;;1507822;77;684;-67
2022/11/22 08:03:49;;;;;;;;;;;22.30;62.80;;;;;;1500019;77;733;-67
2022/11/22 08:05:53;;;;;;;;;;;22.40;62.90;;;;;;1514989;77;1928;-66
2022/11/22 08:07:55;;;;;;;;;;;22.30;62.80;;;;;;1499366;77;1612;-66
2022/11/22 08:09:57;;;;;;;;;;;22.40;62.80;;;;;;1498283;77;699;-67
2022/11/22 08:11:59;;;;;;;;;;;22.30;62.80;;;;;;1509787;77;686;-67
2022/11/22 08:14:01;;;;;;;;;;;22.30;62.70;;;;;;1511320;77;647;-66
2022/11/22 08:16:07;;;;;;;;;;;22.30;62.70;;;;;;1515399;76;1173;-65
2022/11/22 08:18:09;;;;;;;;;;;22.40;62.70;;;;;;1518256;77;690;-67
2022/11/22 08:20:11;;;;;;;;;;;22.30;62.60;;;;;;1505103;77;643;-66
2022/11/22 08:22:13;;;;;;;;;;;22.40;62.60;;;;;;1513121;77;702;-67
2022/11/22 08:24:15;;;;;;;;;;;22.30;62.60;;;;;;1517184;77;646;-66
2022/11/22 08:26:17;;;;;;;;;;;22.40;62.60;;;;;;1512484;77;1928;-66
2022/11/22 08:28:19;;;;;;;;;;;22.30;62.60;;;;;;1505776;77;670;-66
2022/11/22 08:30:21;;;;;;;;;;;22.30;62.60;;;;;;1503749;77;635;-66
2022/11/22 08:32:23;;;;;;;;;;;22.40;62.50;;;;;;1507099;77;643;-64
2022/11/22 08:34:25;;;;;;;;;;;22.30;62.50;;;;;;1508472;77;666;-66
2022/11/22 08:36:27;;;;;;;;;;;22.40;62.50;;;;;;1504942;77;1124;-66
2022/11/22 08:38:28;;;;;;;;;;;22.40;62.40;;;;;;1507639;77;660;-66
2022/11/22 08:40:30;;;;;;;;;;;22.30;62.40;;;;;;1511992;77;752;-67
2022/11/22 08:42:32;;;;;;;;;;;22.40;62.40;;;;;;1508274;77;706;-65
2022/11/22 08:44:34;;;;;;;;;;;22.40;62.40;;;;;;1514086;77;690;-68
2022/11/22 08:46:36;;;;;;;;;;;22.40;62.40;;;;;;1501500;77;1923;-66
2022/11/22 08:48:38;;;;;;;;;;;22.40;62.40;;;;;;1507312;77;677;-66
2022/11/22 08:50:40;;;;;;;;;;;22.40;62.40;;;;;;1506696;77;630;-67
2022/11/22 08:52:41;;;;;;;;;;;22.40;62.40;;;;;;1506882;77;691;-65
2022/11/22 08:54:43;;;;;;;;;;;22.20;62.40;;;;;;1498127;77;688;-65
2022/11/22 08:56:45;;;;;;;;;;;22.30;62.50;;;;;;1506857;77;1142;-66
2022/11/22 08:58:47;;;;;;;;;;;22.40;62.40;;;;;;1509920;77;642;-64
2022/11/22 09:00:49;;;;;;;;;;;22.30;62.50;;;;;;1505678;77;634;-66
2022/11/22 09:02:51;;;;;;;;;;;22.40;62.40;;;;;;1514825;77;556;-66
2022/11/22 09:04:53;;;;;;;;;;;22.30;62.50;;;;;;1520314;77;674;-65
2022/11/22 09:06:55;;;;;;;;;;;22.20;62.40;;;;;;1501358;77;1938;-67
2022/11/22 09:08:56;;;;;;;;;;;22.30;62.40;;;;;;1498072;77;681;-67
2022/11/22 09:11:02;;;;;;;;;;;22.20;62.40;;;;;;1513102;77;1496;-67
2022/11/22 09:13:04;;;;;;;;;;;22.30;62.60;;;;;;1513740;77;581;-67
2022/11/22 09:15:06;;;;;;;;;;;22.20;62.50;;;;;;1506768;77;665;-67
2022/11/22 09:17:08;;;;;;;;;;;22.40;62.50;;;;;;1502843;77;1193;-67
2022/11/22 09:19:10;;;;;;;;;;;22.20;62.40;;;;;;1506325;77;687;-67
2022/11/22 09:21:16;;;;;;;;;;;22.30;62.40;;;;;;1510865;77;704;-66
2022/11/22 09:23:18;;;;;;;;;;;22.30;62.40;;;;;;1516446;77;646;-67
2022/11/22 09:25:20;;;;;;;;;;;22.30;62.30;;;;;;1504082;77;796;-66
2022/11/22 09:27:22;;;;;;;;;;;22.30;62.30;;;;;;1502908;77;1945;-67
2022/11/22 09:29:25;;;;;;;;;;;22.40;62.30;;;;;;1500550;77;670;-66
2022/11/22 09:31:27;;;;;;;;;;;22.30;62.30;;;;;;1508307;77;703;-67
2022/11/22 09:33:29;;;;;;;;;;;22.30;62.30;;;;;;1509550;77;685;-67
2022/11/22 09:35:31;;;;;;;;;;;22.30;62.30;;;;;;1503203;77;734;-66
2022/11/22 09:37:33;;;;;;;;;;;22.30;62.30;;;;;;1510490;77;1129;-65
2022/11/22 09:39:34;;;;;;;;;;;22.30;62.30;;;;;;1505503;77;689;-66
2022/11/22 09:41:41;;;;;;;;;;;22.30;62.30;;;;;;1510106;77;665;-67
2022/11/22 09:43:44;;;;;;;;;;;22.30;62.30;;;;;;1503239;77;676;-65
2022/11/22 09:45:48;;;;;;;;;;;22.30;62.20;;;;;;1505235;77;587;-66
2022/11/22 09:48:03;;;;;;;;;;;22.20;62.20;;;;;;1501008;77;1956;-67
2022/11/22 09:50:12;;;;;;;;;;;22.30;62.20;;;;;;1503439;77;950;-66
2022/11/22 09:52:28;;;;;;;;;;;22.30;62.30;;;;;;1506568;77;1736;-66
2022/11/22 09:54:38;;;;;;;;;;;22.20;62.20;;;;;;1508295;77;705;-67
2022/11/22 09:56:39;;;;;;;;;;;22.20;62.30;;;;;;1506793;77;1111;-68
2022/11/22 09:58:45;;;;;;;;;;;22.20;62.30;;;;;;1503102;77;715;-66
2022/11/22 10:00:47;;;;;;;;;;;22.30;62.30;;;;;;1507196;77;731;-67
2022/11/22 10:02:50;;;;;;;;;;;22.30;62.30;;;;;;1505519;77;1062;-67
2022/11/22 10:04:53;;;;;;;;;;;22.20;62.10;;;;;;1505489;77;558;-67
2022/11/22 10:06:59;;;;;;;;;;;22.30;62.20;;;;;;1505578;77;1958;-65
2022/11/22 10:09:02;;;;;;;;;;;22.30;62.30;;;;;;1516427;77;718;-65
2022/11/22 10:11:05;;;;;;;;;;;22.30;62.20;;;;;;1509601;77;906;-67
2022/11/22 10:13:15;;;;;;;;;;;22.40;62.20;;;;;;1519413;77;678;-65
2022/11/22 10:15:30;;;;;;;;;;;22.30;62.10;;;;;;1508335;77;1694;-67
2022/11/22 10:17:34;;;;;;;;;;;22.30;62.20;;;;;;1505633;77;1753;-66
2022/11/22 10:19:39;;;;;;;;;;;22.40;62.20;;;;;;1505309;77;795;-67
2022/11/22 10:21:41;;;;;;;;;;;22.30;62.20;;;;;;1509819;77;725;-68
2022/11/22 10:23:44;;;;;;;;;;;22.30;62.10;;;;;;1512403;77;740;-67
2022/11/22 10:25:47;;;;;;;;;;;22.30;62.10;;;;;;1516553;77;780;-66
2022/11/22 10:27:50;;;;;;;;;;;22.40;62.10;;;;;;1513769;76;1937;-63
2022/11/22 10:29:57;;;;;;;;;;;22.40;62.00;;;;;;1516363;77;1119;-66
2022/11/22 10:32:09;;;;;;;;;;;22.30;62.00;;;;;;1511615;77;1036;-67
2022/11/22 10:34:15;;;;;;;;;;;22.40;62.00;;;;;;1505675;77;1170;-66
2022/11/22 10:36:25;;;;;;;;;;;22.30;62.10;;;;;;1501978;77;1124;-67
2022/11/22 10:38:41;;;;;;;;;;;22.20;62.10;;;;;;1523099;77;667;-67
2022/11/22 10:40:50;;;;;;;;;;;22.30;62.20;;;;;;1524035;77;1807;-67
2022/11/22 10:43:01;;;;;;;;;;;22.20;62.20;;;;;;1525484;77;598;-67
2022/11/22 10:45:21;;;;;;;;;;;22.20;62.10;;;;;;1512835;77;743;-68
2022/11/22 10:47:27;;;;;;;;;;;22.20;62.30;;;;;;1507688;77;1933;-68
2022/11/22 10:49:33;;;;;;;;;;;22.10;62.20;;;;;;1512860;77;968;-67
2022/11/22 10:51:49;;;;;;;;;;;22.10;62.20;;;;;;1498488;77;621;-68
2022/11/22 10:53:59;;;;;;;;;;;22.20;62.30;;;;;;1516747;77;1181;-66
2022/11/22 10:56:11;;;;;;;;;;;22.30;62.30;;;;;;1514123;76;1174;-66
2022/11/22 10:58:31;;;;;;;;;;;22.20;62.10;;;;;;1518881;77;706;-67
2022/11/22 11:00:33;;;;;;;;;;;22.30;62.30;;;;;;1509031;77;661;-65
2022/11/22 11:02:53;;;;;;;;;;;22.20;62.30;;;;;;1522203;77;654;-67
2022/11/22 11:04:55;;;;;;;;;;;22.20;62.30;;;;;;1518034;77;1450;-68
2022/11/22 11:06:58;;;;;;;;;;;22.20;62.30;;;;;;1514391;77;1949;-67
2022/11/22 11:09:10;;;;;;;;;;;22.20;62.40;;;;;;1507173;77;583;-68
2022/11/22 11:11:13;;;;;;;;;;;22.20;62.30;;;;;;1524869;75;1170;-67
2022/11/22 11:13:16;;;;;;;;;;;22.20;62.40;;;;;;1509142;77;667;-66
2022/11/22 11:15:26;;;;;;;;;;;22.20;62.30;;;;;;1499323;77;724;-66
2022/11/22 11:17:29;;;;;;;;;;;22.20;62.30;;;;;;1515748;76;1174;-67
2022/11/22 11:19:31;;;;;;;;;;;22.20;62.30;;;;;;1516313;77;815;-69
2022/11/22 11:21:33;;;;;;;;;;;22.10;62.40;;;;;;1511964;77;730;-69
2022/11/22 11:23:35;;;;;;;;;;;22.20;62.40;;;;;;1517000;77;683;-67
2022/11/22 11:25:42;;;;;;;;;;;22.10;62.30;;;;;;1510849;77;647;-67
2022/11/22 11:27:44;;;;;;;;;;;22.20;62.30;;;;;;1520028;77;1929;-68
2022/11/22 11:29:46;;;;;;;;;;;22.20;62.30;;;;;;1521287;77;702;-65
2022/11/22 11:31:49;;;;;;;;;;;22.10;62.40;;;;;;1509336;77;703;-67
2022/11/22 11:33:51;;;;;;;;;;;22.20;62.40;;;;;;1507645;77;1004;-67
2022/11/22 11:35:57;;;;;;;;;;;22.10;62.30;;;;;;1514858;77;871;-65
2022/11/22 11:37:59;;;;;;;;;;;22.20;62.30;;;;;;1523710;77;638;-67
2022/11/22 11:40:01;;;;;;;;;;;22.10;62.30;;;;;;1516324;77;691;-68
2022/11/22 11:42:05;;;;;;;;;;;22.20;62.30;;;;;;1523750;77;602;-67
2022/11/22 11:44:08;;;;;;;;;;;22.20;62.30;;;;;;1513802;77;1078;-67
2022/11/22 11:46:17;;;;;;;;;;;22.20;62.30;;;;;;1505217;76;1660;-67
2022/11/22 11:48:26;;;;;;;;;;;22.20;62.30;;;;;;1519291;77;1917;-68
2022/11/22 11:50:31;;;;;;;;;;;22.20;62.30;;;;;;1514012;77;659;-67
2022/11/22 11:52:33;;;;;;;;;;;22.10;62.40;;;;;;1515805;77;655;-68
2022/11/22 11:54:39;;;;;;;;;;;22.10;62.40;;;;;;1504409;77;690;-69
2022/11/22 11:56:43;;;;;;;;;;;22.10;62.30;;;;;;1513006;77;1176;-68
2022/11/22 11:58:47;;;;;;;;;;;22.20;62.20;;;;;;1502071;77;661;-67
2022/11/22 12:00:49;;;;;;;;;;;22.20;62.10;;;;;;1505944;77;1811;-66
2022/11/22 12:02:52;;;;;;;;;;;22.20;62.10;;;;;;1509565;77;733;-69
2022/11/22 12:04:55;;;;;;;;;;;22.20;62.00;;;;;;1505687;77;1129;-66
2022/11/22 12:06:58;;;;;;;;;;;22.30;62.00;;;;;;1507803;77;1158;-69
2022/11/22 12:09:00;;;;;;;;;;;22.20;62.00;;;;;;1512005;77;1926;-67
2022/11/22 12:11:03;;;;;;;;;;;22.30;62.00;;;;;;1509046;77;698;-67
2022/11/22 12:13:10;;;;;;;;;;;22.20;61.90;;;;;;1501628;77;1080;-67
2022/11/22 12:15:22;;;;;;;;;;;22.20;61.90;;;;;;1500759;77;581;-66
2022/11/22 12:17:25;;;;;;;;;;;22.20;61.90;;;;;;1514629;77;1106;-66
2022/11/22 12:19:28;;;;;;;;;;;22.20;61.90;;;;;;1502263;77;818;-67
2022/11/22 12:21:47;;;;;;;;;;;22.20;61.90;;;;;;1510442;77;701;-67
2022/11/22 12:24:00;;;;;;;;;;;22.20;61.90;;;;;;1511084;77;620;-66
2022/11/22 12:26:02;;;;;;;;;;;22.20;61.90;;;;;;1506591;77;1207;-68
2022/11/22 12:28:12;;;;;;;;;;;22.20;61.90;;;;;;1513880;77;1929;-67